sensor_id;sensor_type;location;lat;lon;timestamp;P1;durP1;ratioP1;P2;durP2;ratioP2
18893;SDS011;9579;49.488;8.226;2023-02-15T06:02:24;39.73;;;30.90;;
18893;SDS011;9579;49.488;8.226;2023-02-15T06:05:11;28.73;;;25.73;;
18893;SDS011;9579;49.488;8.226;2023-02-15T06:07:58;34.03;;;28.87;;
18893;SDS011;9579;49.488;8.226;2023-02-15T06:10:45;36.57;;;30.07;;
18893;SDS011;9579;49.488;8.226;2023-02-15T06:16:08;28.90;;;26.00;;
18893;SDS011;9579;49.488;8.226;2023-02-15T06:51:19;27.50;;;24.70;;
18893;SDS011;9579;49.488;8.226;2023-02-15T06:54:08;25.93;;;23.33;;
18893;SDS011;9579;49.488;8.226;2023-02-15T07:18:33;29.77;;;26.53;;
18893;SDS011;9579;49.488;8.226;2023-02-15T07:21:34;27.43;;;24.70;;
18893;SDS011;9579;49.488;8.226;2023-02-15T07:27:14;28.70;;;25.63;;
18893;SDS011;9579;49.488;8.226;2023-02-15T07:30:03;30.57;;;27.27;;
18893;SDS011;9579;49.488;8.226;2023-02-15T07:33:05;29.00;;;26.00;;
18893;SDS011;9579;49.488;8.226;2023-02-15T07:36:13;28.80;;;25.80;;
18893;SDS011;9579;49.488;8.226;2023-02-15T08:01:40;25.73;;;23.03;;
18893;SDS011;9579;49.488;8.226;2023-02-15T08:07:04;28.00;;;25.10;;
18893;SDS011;9579;49.488;8.226;2023-02-15T08:09:57;26.40;;;23.60;;
18893;SDS011;9579;49.488;8.226;2023-02-15T08:23:11;23.87;;;21.50;;
18893;SDS011;9579;49.488;8.226;2023-02-15T08:33:48;24.47;;;22.10;;
18893;SDS011;9579;49.488;8.226;2023-02-15T08:36:45;24.23;;;21.80;;
18893;SDS011;9579;49.488;8.226;2023-02-15T08:47:16;26.30;;;23.60;;
18893;SDS011;9579;49.488;8.226;2023-02-15T08:57:52;30.40;;;27.03;;
18893;SDS011;9579;49.488;8.226;2023-02-15T09:16:19;28.37;;;25.47;;
18893;SDS011;9579;49.488;8.226;2023-02-15T09:19:21;28.73;;;25.77;;
18893;SDS011;9579;49.488;8.226;2023-02-15T09:22:22;26.80;;;24.13;;
18893;SDS011;9579;49.488;8.226;2023-02-15T09:25:32;28.73;;;25.63;;
18893;SDS011;9579;49.488;8.226;2023-02-15T09:28:35;27.67;;;24.87;;
18893;SDS011;9579;49.488;8.226;2023-02-15T09:31:25;28.20;;;25.23;;
18893;SDS011;9579;49.488;8.226;2023-02-15T09:34:14;25.67;;;23.17;;
18893;SDS011;9579;49.488;8.226;2023-02-15T09:37:04;27.67;;;24.77;;
18893;SDS011;9579;49.488;8.226;2023-02-15T09:39:52;30.60;;;27.33;;
18893;SDS011;9579;49.488;8.226;2023-02-15T09:42:43;28.80;;;25.80;;
18893;SDS011;9579;49.488;8.226;2023-02-15T09:45:58;28.27;;;25.27;;
18893;SDS011;9579;49.488;8.226;2023-02-15T09:49:00;30.77;;;27.50;;
18893;SDS011;9579;49.488;8.226;2023-02-15T09:55:23;30.50;;;27.20;;
18893;SDS011;9579;49.488;8.226;2023-02-15T09:58:22;28.57;;;25.50;;
18893;SDS011;9579;49.488;8.226;2023-02-15T10:01:20;28.90;;;26.00;;
18893;SDS011;9579;49.488;8.226;2023-02-15T10:04:24;29.00;;;26.00;;
18893;SDS011;9579;49.488;8.226;2023-02-15T10:07:27;30.00;;;26.87;;
18893;SDS011;9579;49.488;8.226;2023-02-15T10:10:30;28.87;;;25.90;;
18893;SDS011;9579;49.488;8.226;2023-02-15T10:13:27;31.93;;;28.40;;
18893;SDS011;9579;49.488;8.226;2023-02-15T10:16:24;33.00;;;29.43;;
18893;SDS011;9579;49.488;8.226;2023-02-15T10:19:18;37.47;;;32.50;;
18893;SDS011;9579;49.488;8.226;2023-02-15T10:22:21;31.93;;;28.47;;
18893;SDS011;9579;49.488;8.226;2023-02-15T10:25:19;40.47;;;34.50;;
18893;SDS011;9579;49.488;8.226;2023-02-15T10:28:16;34.47;;;30.83;;
18893;SDS011;9579;49.488;8.226;2023-02-15T10:31:07;37.77;;;32.53;;
18893;SDS011;9579;49.488;8.226;2023-02-15T10:34:06;37.50;;;33.43;;
18893;SDS011;9579;49.488;8.226;2023-02-15T10:40:24;35.83;;;30.20;;
18893;SDS011;9579;49.488;8.226;2023-02-15T10:43:20;38.57;;;32.70;;
18893;SDS011;9579;49.488;8.226;2023-02-15T10:46:22;33.37;;;29.83;;
18893;SDS011;9579;49.488;8.226;2023-02-15T10:49:27;33.80;;;30.13;;
18893;SDS011;9579;49.488;8.226;2023-02-15T10:52:32;34.53;;;30.80;;
18893;SDS011;9579;49.488;8.226;2023-02-15T10:55:33;33.83;;;29.97;;
18893;SDS011;9579;49.488;8.226;2023-02-15T10:58:30;37.97;;;33.50;;
18893;SDS011;9579;49.488;8.226;2023-02-15T11:01:29;33.43;;;29.87;;
18893;SDS011;9579;49.488;8.226;2023-02-15T11:04:33;35.67;;;31.80;;
18893;SDS011;9579;49.488;8.226;2023-02-15T11:07:44;36.80;;;32.73;;
18893;SDS011;9579;49.488;8.226;2023-02-15T11:10:34;34.00;;;30.30;;
18893;SDS011;9579;49.488;8.226;2023-02-15T11:13:26;34.57;;;30.87;;
18893;SDS011;9579;49.488;8.226;2023-02-15T11:16:20;34.27;;;30.57;;
18893;SDS011;9579;49.488;8.226;2023-02-15T11:19:12;34.40;;;30.70;;
18893;SDS011;9579;49.488;8.226;2023-02-15T11:22:05;35.40;;;31.43;;
18893;SDS011;9579;49.488;8.226;2023-02-15T11:24:55;35.03;;;30.97;;
18893;SDS011;9579;49.488;8.226;2023-02-15T11:27:46;33.97;;;30.27;;
18893;SDS011;9579;49.488;8.226;2023-02-15T11:30:38;32.80;;;29.20;;
18893;SDS011;9579;49.488;8.226;2023-02-15T11:33:30;38.23;;;33.60;;
18893;SDS011;9579;49.488;8.226;2023-02-15T11:36:22;34.77;;;31.07;;
18893;SDS011;9579;49.488;8.226;2023-02-15T11:39:13;38.63;;;33.53;;
18893;SDS011;9579;49.488;8.226;2023-02-15T11:42:06;31.50;;;28.20;;
18893;SDS011;9579;49.488;8.226;2023-02-15T11:44:59;31.27;;;27.90;;
18893;SDS011;9579;49.488;8.226;2023-02-15T11:47:50;29.83;;;26.57;;
18893;SDS011;9579;49.488;8.226;2023-02-15T11:50:38;31.97;;;28.60;;
18893;SDS011;9579;49.488;8.226;2023-02-15T11:53:26;32.27;;;28.47;;
18893;SDS011;9579;49.488;8.226;2023-02-15T11:56:19;31.33;;;27.57;;
18893;SDS011;9579;49.488;8.226;2023-02-15T11:59:10;29.97;;;26.77;;
18893;SDS011;9579;49.488;8.226;2023-02-15T12:02:06;30.33;;;27.03;;
18893;SDS011;9579;49.488;8.226;2023-02-15T12:05:03;31.43;;;28.03;;
18893;SDS011;9579;49.488;8.226;2023-02-15T12:07:55;28.80;;;25.90;;
18893;SDS011;9579;49.488;8.226;2023-02-15T12:11:00;33.17;;;29.40;;
18893;SDS011;9579;49.488;8.226;2023-02-15T12:13:53;30.70;;;27.33;;
18893;SDS011;9579;49.488;8.226;2023-02-15T12:16:44;28.70;;;25.73;;
18893;SDS011;9579;49.488;8.226;2023-02-15T12:19:34;29.33;;;26.27;;
18893;SDS011;9579;49.488;8.226;2023-02-15T12:22:27;28.20;;;25.37;;
18893;SDS011;9579;49.488;8.226;2023-02-15T12:25:20;31.20;;;27.90;;
18893;SDS011;9579;49.488;8.226;2023-02-15T12:28:18;29.10;;;26.03;;
18893;SDS011;9579;49.488;8.226;2023-02-15T12:31:17;30.53;;;27.30;;
18893;SDS011;9579;49.488;8.226;2023-02-15T12:34:11;33.13;;;29.50;;
18893;SDS011;9579;49.488;8.226;2023-02-15T12:37:07;33.70;;;30.20;;
18893;SDS011;9579;49.488;8.226;2023-02-15T12:39:58;30.30;;;27.10;;
18893;SDS011;9579;49.488;8.226;2023-02-15T12:42:46;32.67;;;29.20;;
18893;SDS011;9579;49.488;8.226;2023-02-15T12:45:34;30.50;;;27.20;;
18893;SDS011;9579;49.488;8.226;2023-02-15T12:48:23;33.67;;;29.47;;
18893;SDS011;9579;49.488;8.226;2023-02-15T12:51:13;31.27;;;27.97;;
18893;SDS011;9579;49.488;8.226;2023-02-15T12:54:03;33.03;;;29.43;;
18893;SDS011;9579;49.488;8.226;2023-02-15T12:57:14;32.70;;;29.20;;
18893;SDS011;9579;49.488;8.226;2023-02-15T13:00:23;31.17;;;27.63;;
18893;SDS011;9579;49.488;8.226;2023-02-15T13:03:16;30.67;;;27.47;;
18893;SDS011;9579;49.488;8.226;2023-02-15T13:06:05;27.33;;;24.50;;
18893;SDS011;9579;49.488;8.226;2023-02-15T13:08:55;32.07;;;28.67;;
18893;SDS011;9579;49.488;8.226;2023-02-15T13:11:44;30.60;;;27.40;;
18893;SDS011;9579;49.488;8.226;2023-02-15T13:14:35;31.77;;;28.37;;
18893;SDS011;9579;49.488;8.226;2023-02-15T13:17:24;32.30;;;28.80;;
18893;SDS011;9579;49.488;8.226;2023-02-15T13:20:16;33.90;;;30.27;;
18893;SDS011;9579;49.488;8.226;2023-02-15T13:23:06;33.27;;;29.80;;
18893;SDS011;9579;49.488;8.226;2023-02-15T13:26:03;35.67;;;31.77;;
18893;SDS011;9579;49.488;8.226;2023-02-15T13:28:56;36.10;;;31.87;;
18893;SDS011;9579;49.488;8.226;2023-02-15T13:31:46;36.10;;;31.90;;
18893;SDS011;9579;49.488;8.226;2023-02-15T13:34:33;34.03;;;30.33;;
18893;SDS011;9579;49.488;8.226;2023-02-15T13:37:26;33.30;;;29.70;;
18893;SDS011;9579;49.488;8.226;2023-02-15T13:40:24;36.53;;;32.43;;
18893;SDS011;9579;49.488;8.226;2023-02-15T13:43:20;37.00;;;33.00;;
18893;SDS011;9579;49.488;8.226;2023-02-15T13:46:25;35.40;;;31.60;;
18893;SDS011;9579;49.488;8.226;2023-02-15T13:49:40;37.80;;;33.73;;
18893;SDS011;9579;49.488;8.226;2023-02-15T13:52:38;40.20;;;35.27;;
18893;SDS011;9579;49.488;8.226;2023-02-15T13:55:36;38.47;;;34.33;;
18893;SDS011;9579;49.488;8.226;2023-02-15T13:58:32;36.33;;;32.43;;
18893;SDS011;9579;49.488;8.226;2023-02-15T14:01:49;37.07;;;33.10;;
18893;SDS011;9579;49.488;8.226;2023-02-15T14:04:51;36.50;;;32.60;;
18893;SDS011;9579;49.488;8.226;2023-02-15T14:07:55;33.83;;;30.13;;
18893;SDS011;9579;49.488;8.226;2023-02-15T14:10:51;39.50;;;34.53;;
18893;SDS011;9579;49.488;8.226;2023-02-15T14:17:15;40.70;;;35.27;;
18893;SDS011;9579;49.488;8.226;2023-02-15T14:20:17;43.47;;;37.33;;
18893;SDS011;9579;49.488;8.226;2023-02-15T14:23:11;39.47;;;33.27;;
18893;SDS011;9579;49.488;8.226;2023-02-15T14:26:06;40.10;;;34.70;;
18893;SDS011;9579;49.488;8.226;2023-02-15T14:29:02;38.40;;;33.47;;
18893;SDS011;9579;49.488;8.226;2023-02-15T14:32:00;38.33;;;32.77;;
18893;SDS011;9579;49.488;8.226;2023-02-15T14:34:55;41.37;;;35.83;;
18893;SDS011;9579;49.488;8.226;2023-02-15T14:37:46;40.17;;;34.83;;
18893;SDS011;9579;49.488;8.226;2023-02-15T14:40:39;43.07;;;35.87;;
18893;SDS011;9579;49.488;8.226;2023-02-15T14:43:48;39.77;;;34.97;;
18893;SDS011;9579;49.488;8.226;2023-02-15T14:46:45;40.60;;;34.63;;
18893;SDS011;9579;49.488;8.226;2023-02-15T14:49:40;42.57;;;36.83;;
18893;SDS011;9579;49.488;8.226;2023-02-15T14:52:27;39.00;;;34.63;;
18893;SDS011;9579;49.488;8.226;2023-02-15T14:55:14;42.37;;;36.30;;
18893;SDS011;9579;49.488;8.226;2023-02-15T14:58:23;39.53;;;35.13;;
18893;SDS011;9579;49.488;8.226;2023-02-15T15:01:10;44.30;;;36.40;;
18893;SDS011;9579;49.488;8.226;2023-02-15T15:03:59;41.93;;;35.00;;
18893;SDS011;9579;49.488;8.226;2023-02-15T15:06:57;43.33;;;37.40;;
18893;SDS011;9579;49.488;8.226;2023-02-15T15:09:57;45.80;;;38.10;;
18893;SDS011;9579;49.488;8.226;2023-02-15T15:12:47;41.63;;;36.03;;
18893;SDS011;9579;49.488;8.226;2023-02-15T15:15:44;45.03;;;38.27;;
18893;SDS011;9579;49.488;8.226;2023-02-15T15:18:45;45.17;;;37.70;;
18893;SDS011;9579;49.488;8.226;2023-02-15T15:21:53;45.20;;;37.30;;
18893;SDS011;9579;49.488;8.226;2023-02-15T15:24:48;40.50;;;35.87;;
18893;SDS011;9579;49.488;8.226;2023-02-15T15:27:48;40.10;;;34.87;;
18893;SDS011;9579;49.488;8.226;2023-02-15T15:30:47;42.03;;;35.50;;
18893;SDS011;9579;49.488;8.226;2023-02-15T15:37:28;37.17;;;32.93;;
18893;SDS011;9579;49.488;8.226;2023-02-15T15:51:23;41.00;;;35.53;;
18893;SDS011;9579;49.488;8.226;2023-02-15T16:02:13;39.60;;;35.30;;
18893;SDS011;9579;49.488;8.226;2023-02-15T16:07:44;43.40;;;36.10;;
18893;SDS011;9579;49.488;8.226;2023-02-15T16:10:33;37.10;;;31.83;;
18893;SDS011;9579;49.488;8.226;2023-02-15T16:13:34;39.83;;;34.37;;
18893;SDS011;9579;49.488;8.226;2023-02-15T16:16:36;41.07;;;35.73;;
18893;SDS011;9579;49.488;8.226;2023-02-15T16:19:26;37.67;;;33.20;;
18893;SDS011;9579;49.488;8.226;2023-02-15T16:22:21;37.97;;;33.77;;
18893;SDS011;9579;49.488;8.226;2023-02-15T16:30:54;43.77;;;37.13;;
18893;SDS011;9579;49.488;8.226;2023-02-15T16:33:55;39.20;;;34.90;;
18893;SDS011;9579;49.488;8.226;2023-02-15T16:36:44;42.57;;;36.60;;
18893;SDS011;9579;49.488;8.226;2023-02-15T16:42:59;38.23;;;34.17;;
18893;SDS011;9579;49.488;8.226;2023-02-15T16:45:53;40.77;;;34.43;;
18893;SDS011;9579;49.488;8.226;2023-02-15T16:48:50;40.27;;;35.30;;
18893;SDS011;9579;49.488;8.226;2023-02-15T16:51:40;40.97;;;35.90;;
18893;SDS011;9579;49.488;8.226;2023-02-15T16:54:31;41.40;;;36.83;;
18893;SDS011;9579;49.488;8.226;2023-02-15T16:57:20;37.43;;;33.37;;
18893;SDS011;9579;49.488;8.226;2023-02-15T17:17:27;43.00;;;36.50;;
18893;SDS011;9579;49.488;8.226;2023-02-15T17:20:19;42.20;;;36.70;;
18893;SDS011;9579;49.488;8.226;2023-02-15T17:23:18;43.43;;;36.70;;
18893;SDS011;9579;49.488;8.226;2023-02-15T17:26:11;50.73;;;40.90;;
18893;SDS011;9579;49.488;8.226;2023-02-15T17:29:09;41.27;;;35.73;;
18893;SDS011;9579;49.488;8.226;2023-02-15T17:32:02;47.90;;;38.80;;
18893;SDS011;9579;49.488;8.226;2023-02-15T17:34:58;44.53;;;37.53;;
18893;SDS011;9579;49.488;8.226;2023-02-15T17:38:00;43.07;;;37.10;;
18893;SDS011;9579;49.488;8.226;2023-02-15T17:40:52;41.67;;;36.20;;
18893;SDS011;9579;49.488;8.226;2023-02-15T17:43:39;42.70;;;35.97;;
18893;SDS011;9579;49.488;8.226;2023-02-15T17:46:28;41.03;;;36.57;;
18893;SDS011;9579;49.488;8.226;2023-02-15T17:49:22;43.27;;;37.40;;
18893;SDS011;9579;49.488;8.226;2023-02-15T17:52:13;42.87;;;37.63;;
18893;SDS011;9579;49.488;8.226;2023-02-15T17:55:04;40.07;;;35.27;;
18893;SDS011;9579;49.488;8.226;2023-02-15T17:58:16;44.20;;;37.13;;
18893;SDS011;9579;49.488;8.226;2023-02-15T18:01:05;40.77;;;35.53;;
18893;SDS011;9579;49.488;8.226;2023-02-15T18:04:16;43.30;;;36.77;;
18893;SDS011;9579;49.488;8.226;2023-02-15T18:07:23;41.43;;;35.83;;
18893;SDS011;9579;49.488;8.226;2023-02-15T18:10:27;44.33;;;36.67;;
18893;SDS011;9579;49.488;8.226;2023-02-15T18:13:32;41.37;;;34.93;;
18893;SDS011;9579;49.488;8.226;2023-02-15T18:16:20;44.67;;;37.23;;
18893;SDS011;9579;49.488;8.226;2023-02-15T18:19:12;47.47;;;40.57;;
18893;SDS011;9579;49.488;8.226;2023-02-15T18:22:04;44.17;;;38.93;;
18893;SDS011;9579;49.488;8.226;2023-02-15T18:24:55;44.37;;;37.90;;
18893;SDS011;9579;49.488;8.226;2023-02-15T18:27:42;42.20;;;36.90;;
18893;SDS011;9579;49.488;8.226;2023-02-15T18:30:29;45.30;;;39.07;;
18893;SDS011;9579;49.488;8.226;2023-02-15T18:33:21;43.30;;;36.13;;
18893;SDS011;9579;49.488;8.226;2023-02-15T18:36:17;45.37;;;39.20;;
18893;SDS011;9579;49.488;8.226;2023-02-15T18:39:10;47.53;;;40.83;;
18893;SDS011;9579;49.488;8.226;2023-02-15T18:42:17;40.33;;;35.70;;
18893;SDS011;9579;49.488;8.226;2023-02-15T18:45:10;42.83;;;37.57;;
18893;SDS011;9579;49.488;8.226;2023-02-15T18:48:01;45.27;;;39.47;;
18893;SDS011;9579;49.488;8.226;2023-02-15T18:50:48;44.50;;;39.63;;
18893;SDS011;9579;49.488;8.226;2023-02-15T18:53:36;49.23;;;43.83;;
18893;SDS011;9579;49.488;8.226;2023-02-15T18:56:23;52.10;;;43.20;;
18893;SDS011;9579;49.488;8.226;2023-02-15T18:59:14;41.57;;;37.00;;
18893;SDS011;9579;49.488;8.226;2023-02-15T19:02:02;42.50;;;37.83;;
18893;SDS011;9579;49.488;8.226;2023-02-15T19:04:55;46.23;;;41.20;;
18893;SDS011;9579;49.488;8.226;2023-02-15T19:07:42;48.50;;;41.60;;
18893;SDS011;9579;49.488;8.226;2023-02-15T19:10:32;47.70;;;40.20;;
18893;SDS011;9579;49.488;8.226;2023-02-15T19:13:21;49.13;;;41.73;;
18893;SDS011;9579;49.488;8.226;2023-02-15T19:16:11;46.37;;;40.10;;
18893;SDS011;9579;49.488;8.226;2023-02-15T19:19:05;45.10;;;38.90;;
18893;SDS011;9579;49.488;8.226;2023-02-15T19:21:52;43.10;;;38.40;;
18893;SDS011;9579;49.488;8.226;2023-02-15T19:24:40;49.50;;;41.90;;
18893;SDS011;9579;49.488;8.226;2023-02-15T19:27:30;37.93;;;33.90;;
18893;SDS011;9579;49.488;8.226;2023-02-15T19:30:20;38.53;;;34.53;;
18893;SDS011;9579;49.488;8.226;2023-02-15T19:33:13;45.07;;;39.27;;
18893;SDS011;9579;49.488;8.226;2023-02-15T19:36:02;43.70;;;38.90;;
18893;SDS011;9579;49.488;8.226;2023-02-15T19:38:52;45.03;;;40.10;;
18893;SDS011;9579;49.488;8.226;2023-02-15T19:41:40;43.13;;;38.40;;
18893;SDS011;9579;49.488;8.226;2023-02-15T19:44:27;44.20;;;38.40;;
18893;SDS011;9579;49.488;8.226;2023-02-15T19:47:14;47.13;;;39.77;;
18893;SDS011;9579;49.488;8.226;2023-02-15T19:50:03;44.30;;;39.00;;
18893;SDS011;9579;49.488;8.226;2023-02-15T19:52:51;41.23;;;36.60;;
18893;SDS011;9579;49.488;8.226;2023-02-15T19:55:38;41.23;;;36.70;;
18893;SDS011;9579;49.488;8.226;2023-02-15T19:58:26;43.77;;;38.97;;
18893;SDS011;9579;49.488;8.226;2023-02-15T20:01:13;48.27;;;41.50;;
18893;SDS011;9579;49.488;8.226;2023-02-15T20:04:00;52.23;;;42.03;;
18893;SDS011;9579;49.488;8.226;2023-02-15T20:06:48;43.43;;;38.20;;
18893;SDS011;9579;49.488;8.226;2023-02-15T20:09:36;42.80;;;38.13;;
18893;SDS011;9579;49.488;8.226;2023-02-15T20:12:25;41.20;;;36.80;;
18893;SDS011;9579;49.488;8.226;2023-02-15T20:15:17;44.40;;;38.27;;
18893;SDS011;9579;49.488;8.226;2023-02-15T20:18:06;39.67;;;35.37;;
18893;SDS011;9579;49.488;8.226;2023-02-15T20:20:54;44.53;;;38.37;;
18893;SDS011;9579;49.488;8.226;2023-02-15T20:23:42;44.70;;;39.83;;
18893;SDS011;9579;49.488;8.226;2023-02-15T20:26:31;43.33;;;37.57;;
18893;SDS011;9579;49.488;8.226;2023-02-15T20:29:18;46.90;;;40.90;;
18893;SDS011;9579;49.488;8.226;2023-02-15T20:32:06;42.00;;;36.10;;
18893;SDS011;9579;49.488;8.226;2023-02-15T20:34:54;40.60;;;35.37;;
18893;SDS011;9579;49.488;8.226;2023-02-15T20:37:42;42.00;;;36.47;;
18893;SDS011;9579;49.488;8.226;2023-02-15T20:40:32;48.03;;;39.13;;
18893;SDS011;9579;49.488;8.226;2023-02-15T20:43:20;39.83;;;35.53;;
18893;SDS011;9579;49.488;8.226;2023-02-15T20:46:07;38.57;;;34.30;;
18893;SDS011;9579;49.488;8.226;2023-02-15T20:48:55;40.03;;;35.70;;
18893;SDS011;9579;49.488;8.226;2023-02-15T20:51:42;44.43;;;38.37;;
18893;SDS011;9579;49.488;8.226;2023-02-15T20:54:32;49.00;;;43.73;;
18893;SDS011;9579;49.488;8.226;2023-02-15T20:57:21;47.87;;;41.93;;
18893;SDS011;9579;49.488;8.226;2023-02-15T21:00:11;67.13;;;57.83;;
18893;SDS011;9579;49.488;8.226;2023-02-15T21:03:00;88.43;;;61.67;;
18893;SDS011;9579;49.488;8.226;2023-02-15T21:05:47;43.20;;;36.77;;
18893;SDS011;9579;49.488;8.226;2023-02-15T21:08:34;44.10;;;38.30;;
18893;SDS011;9579;49.488;8.226;2023-02-15T21:11:21;37.83;;;33.77;;
18893;SDS011;9579;49.488;8.226;2023-02-15T21:14:14;38.30;;;34.20;;
18893;SDS011;9579;49.488;8.226;2023-02-15T21:17:02;39.97;;;35.13;;
18893;SDS011;9579;49.488;8.226;2023-02-15T21:19:50;39.40;;;35.00;;
18893;SDS011;9579;49.488;8.226;2023-02-15T21:22:37;36.27;;;32.33;;
18893;SDS011;9579;49.488;8.226;2023-02-15T21:25:26;40.83;;;33.53;;
18893;SDS011;9579;49.488;8.226;2023-02-15T21:28:17;51.23;;;35.03;;
18893;SDS011;9579;49.488;8.226;2023-02-15T21:31:09;40.27;;;35.07;;
18893;SDS011;9579;49.488;8.226;2023-02-15T21:34:01;41.17;;;36.57;;
18893;SDS011;9579;49.488;8.226;2023-02-15T21:36:48;38.20;;;34.20;;
18893;SDS011;9579;49.488;8.226;2023-02-15T21:39:35;43.30;;;37.10;;
18893;SDS011;9579;49.488;8.226;2023-02-15T21:42:22;39.20;;;34.97;;
18893;SDS011;9579;49.488;8.226;2023-02-15T21:45:38;39.10;;;35.07;;
18893;SDS011;9579;49.488;8.226;2023-02-15T21:48:44;44.20;;;36.00;;
18893;SDS011;9579;49.488;8.226;2023-02-15T21:51:31;42.07;;;34.83;;
18893;SDS011;9579;49.488;8.226;2023-02-15T21:54:37;39.00;;;34.80;;
18893;SDS011;9579;49.488;8.226;2023-02-15T21:57:24;35.93;;;32.33;;
18893;SDS011;9579;49.488;8.226;2023-02-15T22:00:12;36.60;;;32.60;;
18893;SDS011;9579;49.488;8.226;2023-02-15T22:03:02;36.73;;;32.83;;
18893;SDS011;9579;49.488;8.226;2023-02-15T22:05:52;34.37;;;30.77;;
18893;SDS011;9579;49.488;8.226;2023-02-15T22:08:39;33.87;;;30.33;;
18893;SDS011;9579;49.488;8.226;2023-02-15T22:11:27;35.50;;;31.87;;
18893;SDS011;9579;49.488;8.226;2023-02-15T22:14:24;49.50;;;44.23;;
18893;SDS011;9579;49.488;8.226;2023-02-15T22:17:21;32.97;;;29.77;;
18893;SDS011;9579;49.488;8.226;2023-02-15T22:20:11;30.87;;;27.87;;
18893;SDS011;9579;49.488;8.226;2023-02-15T22:23:02;32.30;;;29.10;;
18893;SDS011;9579;49.488;8.226;2023-02-15T22:25:49;33.07;;;29.77;;
18893;SDS011;9579;49.488;8.226;2023-02-15T22:28:40;35.77;;;32.00;;
18893;SDS011;9579;49.488;8.226;2023-02-15T22:31:28;33.67;;;30.13;;
18893;SDS011;9579;49.488;8.226;2023-02-15T22:34:22;39.77;;;31.50;;
18893;SDS011;9579;49.488;8.226;2023-02-15T22:37:12;33.23;;;29.73;;
18893;SDS011;9579;49.488;8.226;2023-02-15T22:40:00;32.13;;;28.93;;
18893;SDS011;9579;49.488;8.226;2023-02-15T22:42:48;33.90;;;30.50;;
18893;SDS011;9579;49.488;8.226;2023-02-15T22:45:36;32.73;;;29.43;;
18893;SDS011;9579;49.488;8.226;2023-02-15T22:48:23;34.67;;;31.07;;
18893;SDS011;9579;49.488;8.226;2023-02-15T22:51:11;32.20;;;28.90;;
18893;SDS011;9579;49.488;8.226;2023-02-15T22:53:58;31.70;;;28.43;;
18893;SDS011;9579;49.488;8.226;2023-02-15T22:56:48;34.87;;;29.47;;
18893;SDS011;9579;49.488;8.226;2023-02-15T22:59:36;30.67;;;27.43;;
18893;SDS011;9579;49.488;8.226;2023-02-15T23:02:23;33.40;;;27.50;;
18893;SDS011;9579;49.488;8.226;2023-02-15T23:05:16;31.13;;;28.03;;
18893;SDS011;9579;49.488;8.226;2023-02-15T23:08:04;27.00;;;24.37;;
18893;SDS011;9579;49.488;8.226;2023-02-15T23:10:52;26.80;;;24.20;;
18893;SDS011;9579;49.488;8.226;2023-02-15T23:13:42;27.90;;;25.20;;
18893;SDS011;9579;49.488;8.226;2023-02-15T23:16:30;31.47;;;25.17;;
18893;SDS011;9579;49.488;8.226;2023-02-15T23:19:19;30.60;;;27.70;;
18893;SDS011;9579;49.488;8.226;2023-02-15T23:22:06;39.13;;;24.57;;
18893;SDS011;9579;49.488;8.226;2023-02-15T23:24:57;31.40;;;27.60;;
18893;SDS011;9579;49.488;8.226;2023-02-15T23:27:44;30.50;;;27.23;;
